sensor_id;sensor_type;location;lat;lon;timestamp;P1;durP1;ratioP1;P2;durP2;ratioP2
3597;SDS011;1813;52.016;8.714;2023-07-20T00:00:20;13.50;;;8.40;;
3597;SDS011;1813;52.016;8.714;2023-07-20T00:03:05;16.53;;;8.47;;
3597;SDS011;1813;52.016;8.714;2023-07-20T00:05:47;11.37;;;8.23;;
3597;SDS011;1813;52.016;8.714;2023-07-20T00:08:21;15.93;;;8.10;;
3597;SDS011;1813;52.016;8.714;2023-07-20T00:10:57;12.53;;;8.40;;
3597;SDS011;1813;52.016;8.714;2023-07-20T00:13:31;8.93;;;7.10;;
3597;SDS011;1813;52.016;8.714;2023-07-20T00:16:05;13.17;;;7.50;;
3597;SDS011;1813;52.016;8.714;2023-07-20T00:18:41;15.30;;;7.63;;
3597;SDS011;1813;52.016;8.714;2023-07-20T00:21:15;17.37;;;7.07;;
3597;SDS011;1813;52.016;8.714;2023-07-20T00:23:49;10.73;;;8.07;;
3597;SDS011;1813;52.016;8.714;2023-07-20T00:26:26;9.13;;;8.13;;
3597;SDS011;1813;52.016;8.714;2023-07-20T00:29:00;9.23;;;7.37;;
3597;SDS011;1813;52.016;8.714;2023-07-20T00:31:34;16.83;;;8.23;;
3597;SDS011;1813;52.016;8.714;2023-07-20T00:34:08;12.57;;;8.63;;
3597;SDS011;1813;52.016;8.714;2023-07-20T00:36:44;12.00;;;8.43;;
3597;SDS011;1813;52.016;8.714;2023-07-20T00:39:19;16.07;;;8.30;;
3597;SDS011;1813;52.016;8.714;2023-07-20T00:41:57;15.50;;;8.20;;
3597;SDS011;1813;52.016;8.714;2023-07-20T00:44:31;13.30;;;8.10;;
3597;SDS011;1813;52.016;8.714;2023-07-20T00:47:05;17.63;;;8.17;;
3597;SDS011;1813;52.016;8.714;2023-07-20T00:49:40;15.00;;;8.27;;
3597;SDS011;1813;52.016;8.714;2023-07-20T00:52:14;15.00;;;7.50;;
3597;SDS011;1813;52.016;8.714;2023-07-20T00:54:48;15.97;;;8.40;;
3597;SDS011;1813;52.016;8.714;2023-07-20T00:57:25;8.90;;;7.47;;
3597;SDS011;1813;52.016;8.714;2023-07-20T01:00:00;14.67;;;7.90;;
3597;SDS011;1813;52.016;8.714;2023-07-20T01:02:34;11.47;;;8.10;;
3597;SDS011;1813;52.016;8.714;2023-07-20T01:05:08;24.10;;;8.50;;
3597;SDS011;1813;52.016;8.714;2023-07-20T01:07:53;15.20;;;8.77;;
3597;SDS011;1813;52.016;8.714;2023-07-20T01:10:33;17.47;;;7.97;;
3597;SDS011;1813;52.016;8.714;2023-07-20T01:13:16;13.23;;;7.60;;
3597;SDS011;1813;52.016;8.714;2023-07-20T01:15:53;11.80;;;8.30;;
3597;SDS011;1813;52.016;8.714;2023-07-20T01:18:30;14.63;;;9.10;;
3597;SDS011;1813;52.016;8.714;2023-07-20T01:21:06;10.37;;;8.47;;
3597;SDS011;1813;52.016;8.714;2023-07-20T01:23:52;14.90;;;8.47;;
3597;SDS011;1813;52.016;8.714;2023-07-20T01:30:08;16.83;;;8.87;;
3597;SDS011;1813;52.016;8.714;2023-07-20T01:32:52;14.97;;;8.37;;
3597;SDS011;1813;52.016;8.714;2023-07-20T01:35:29;15.80;;;8.70;;
3597;SDS011;1813;52.016;8.714;2023-07-20T01:38:05;20.50;;;8.60;;
3597;SDS011;1813;52.016;8.714;2023-07-20T01:40:41;18.00;;;9.77;;
3597;SDS011;1813;52.016;8.714;2023-07-20T01:43:16;14.70;;;9.70;;
3597;SDS011;1813;52.016;8.714;2023-07-20T01:45:50;18.10;;;10.80;;
3597;SDS011;1813;52.016;8.714;2023-07-20T01:48:26;15.23;;;11.70;;
3597;SDS011;1813;52.016;8.714;2023-07-20T01:51:00;18.20;;;11.03;;
3597;SDS011;1813;52.016;8.714;2023-07-20T01:53:34;20.87;;;12.07;;
3597;SDS011;1813;52.016;8.714;2023-07-20T01:56:08;17.70;;;12.30;;
3597;SDS011;1813;52.016;8.714;2023-07-20T01:58:42;21.83;;;13.23;;
3597;SDS011;1813;52.016;8.714;2023-07-20T02:01:16;19.33;;;14.20;;
3597;SDS011;1813;52.016;8.714;2023-07-20T02:03:53;19.50;;;15.53;;
3597;SDS011;1813;52.016;8.714;2023-07-20T02:06:27;22.20;;;15.30;;
3597;SDS011;1813;52.016;8.714;2023-07-20T02:09:01;22.83;;;16.40;;
3597;SDS011;1813;52.016;8.714;2023-07-20T02:11:35;28.37;;;17.80;;
3597;SDS011;1813;52.016;8.714;2023-07-20T02:14:09;27.77;;;16.60;;
3597;SDS011;1813;52.016;8.714;2023-07-20T02:16:43;34.10;;;16.87;;
3597;SDS011;1813;52.016;8.714;2023-07-20T02:19:21;26.93;;;18.07;;
3597;SDS011;1813;52.016;8.714;2023-07-20T02:21:54;25.70;;;18.40;;
3597;SDS011;1813;52.016;8.714;2023-07-20T02:24:28;31.23;;;18.60;;
3597;SDS011;1813;52.016;8.714;2023-07-20T02:27:03;26.30;;;19.13;;
3597;SDS011;1813;52.016;8.714;2023-07-20T02:29:37;28.20;;;19.13;;
3597;SDS011;1813;52.016;8.714;2023-07-20T02:32:11;29.90;;;19.97;;
3597;SDS011;1813;52.016;8.714;2023-07-20T02:34:48;28.60;;;19.10;;
3597;SDS011;1813;52.016;8.714;2023-07-20T02:37:21;29.07;;;20.07;;
3597;SDS011;1813;52.016;8.714;2023-07-20T02:39:56;27.30;;;19.30;;
3597;SDS011;1813;52.016;8.714;2023-07-20T02:42:31;27.03;;;19.10;;
3597;SDS011;1813;52.016;8.714;2023-07-20T02:45:06;27.83;;;19.83;;
3597;SDS011;1813;52.016;8.714;2023-07-20T02:47:40;30.50;;;20.73;;
3597;SDS011;1813;52.016;8.714;2023-07-20T02:50:17;36.20;;;20.17;;
3597;SDS011;1813;52.016;8.714;2023-07-20T02:52:50;30.67;;;19.10;;
3597;SDS011;1813;52.016;8.714;2023-07-20T02:55:24;29.20;;;20.30;;
3597;SDS011;1813;52.016;8.714;2023-07-20T02:58:01;30.33;;;20.50;;
3597;SDS011;1813;52.016;8.714;2023-07-20T03:00:35;27.10;;;19.20;;
3597;SDS011;1813;52.016;8.714;2023-07-20T03:03:09;26.07;;;19.10;;
3597;SDS011;1813;52.016;8.714;2023-07-20T03:05:45;36.17;;;18.57;;
3597;SDS011;1813;52.016;8.714;2023-07-20T03:08:24;35.43;;;19.77;;
3597;SDS011;1813;52.016;8.714;2023-07-20T03:10:58;26.30;;;19.87;;
3597;SDS011;1813;52.016;8.714;2023-07-20T03:13:33;35.07;;;21.73;;
3597;SDS011;1813;52.016;8.714;2023-07-20T03:16:07;36.07;;;21.10;;
3597;SDS011;1813;52.016;8.714;2023-07-20T03:18:42;45.43;;;21.20;;
3597;SDS011;1813;52.016;8.714;2023-07-20T03:21:19;41.10;;;22.03;;
3597;SDS011;1813;52.016;8.714;2023-07-20T03:23:53;36.97;;;22.20;;
3597;SDS011;1813;52.016;8.714;2023-07-20T03:26:28;43.63;;;23.87;;
3597;SDS011;1813;52.016;8.714;2023-07-20T03:29:02;33.23;;;23.17;;
3597;SDS011;1813;52.016;8.714;2023-07-20T03:31:37;39.87;;;25.20;;
3597;SDS011;1813;52.016;8.714;2023-07-20T03:34:12;40.17;;;26.70;;
3597;SDS011;1813;52.016;8.714;2023-07-20T03:36:48;41.67;;;25.37;;
3597;SDS011;1813;52.016;8.714;2023-07-20T03:39:22;40.53;;;25.53;;
3597;SDS011;1813;52.016;8.714;2023-07-20T03:41:57;37.00;;;24.60;;
3597;SDS011;1813;52.016;8.714;2023-07-20T03:44:31;39.00;;;23.60;;
3597;SDS011;1813;52.016;8.714;2023-07-20T03:47:05;31.77;;;22.83;;
3597;SDS011;1813;52.016;8.714;2023-07-20T03:49:40;42.67;;;21.17;;
3597;SDS011;1813;52.016;8.714;2023-07-20T03:52:16;26.53;;;16.57;;
3597;SDS011;1813;52.016;8.714;2023-07-20T03:54:50;16.17;;;9.83;;
3597;SDS011;1813;52.016;8.714;2023-07-20T03:57:25;14.20;;;7.47;;
3597;SDS011;1813;52.016;8.714;2023-07-20T03:59:58;9.60;;;7.10;;
3597;SDS011;1813;52.016;8.714;2023-07-20T04:02:32;7.00;;;6.20;;
3597;SDS011;1813;52.016;8.714;2023-07-20T04:05:06;18.03;;;6.77;;
3597;SDS011;1813;52.016;8.714;2023-07-20T04:07:43;9.53;;;6.30;;
3597;SDS011;1813;52.016;8.714;2023-07-20T04:10:17;9.87;;;6.20;;
3597;SDS011;1813;52.016;8.714;2023-07-20T04:12:55;10.73;;;6.13;;
3597;SDS011;1813;52.016;8.714;2023-07-20T04:15:29;10.30;;;6.60;;
3597;SDS011;1813;52.016;8.714;2023-07-20T04:18:04;10.37;;;6.20;;
3597;SDS011;1813;52.016;8.714;2023-07-20T04:20:38;6.47;;;5.70;;
3597;SDS011;1813;52.016;8.714;2023-07-20T04:23:15;7.13;;;6.43;;
3597;SDS011;1813;52.016;8.714;2023-07-20T04:25:48;5.97;;;5.47;;
3597;SDS011;1813;52.016;8.714;2023-07-20T04:28:22;5.70;;;4.77;;
3597;SDS011;1813;52.016;8.714;2023-07-20T04:31:08;6.77;;;4.90;;
3597;SDS011;1813;52.016;8.714;2023-07-20T04:33:42;4.93;;;4.53;;
3597;SDS011;1813;52.016;8.714;2023-07-20T04:36:17;4.97;;;4.50;;
3597;SDS011;1813;52.016;8.714;2023-07-20T04:38:53;4.80;;;4.40;;
3597;SDS011;1813;52.016;8.714;2023-07-20T04:41:27;6.20;;;4.57;;
3597;SDS011;1813;52.016;8.714;2023-07-20T04:44:02;5.30;;;4.80;;
3597;SDS011;1813;52.016;8.714;2023-07-20T04:46:36;7.50;;;5.83;;
3597;SDS011;1813;52.016;8.714;2023-07-20T04:49:10;6.93;;;6.33;;
3597;SDS011;1813;52.016;8.714;2023-07-20T04:51:46;7.57;;;6.60;;
3597;SDS011;1813;52.016;8.714;2023-07-20T04:54:24;8.40;;;6.07;;
3597;SDS011;1813;52.016;8.714;2023-07-20T04:56:59;6.70;;;6.10;;
3597;SDS011;1813;52.016;8.714;2023-07-20T04:59:33;11.40;;;6.57;;
3597;SDS011;1813;52.016;8.714;2023-07-20T05:02:08;6.60;;;5.90;;
3597;SDS011;1813;52.016;8.714;2023-07-20T05:04:43;7.07;;;6.10;;
3597;SDS011;1813;52.016;8.714;2023-07-20T05:07:16;6.70;;;6.03;;
3597;SDS011;1813;52.016;8.714;2023-07-20T05:09:53;8.33;;;6.00;;
3597;SDS011;1813;52.016;8.714;2023-07-20T05:12:27;5.73;;;5.23;;
3597;SDS011;1813;52.016;8.714;2023-07-20T05:15:01;10.30;;;5.17;;
3597;SDS011;1813;52.016;8.714;2023-07-20T05:17:35;5.70;;;5.20;;
3597;SDS011;1813;52.016;8.714;2023-07-20T05:20:11;5.87;;;5.33;;
3597;SDS011;1813;52.016;8.714;2023-07-20T05:22:45;6.27;;;5.67;;
3597;SDS011;1813;52.016;8.714;2023-07-20T05:25:22;8.90;;;5.27;;
3597;SDS011;1813;52.016;8.714;2023-07-20T05:27:56;5.57;;;5.07;;
3597;SDS011;1813;52.016;8.714;2023-07-20T05:30:30;5.90;;;4.50;;
3597;SDS011;1813;52.016;8.714;2023-07-20T05:33:04;4.90;;;4.50;;
3597;SDS011;1813;52.016;8.714;2023-07-20T05:35:38;5.40;;;4.60;;
3597;SDS011;1813;52.016;8.714;2023-07-20T05:38:11;4.87;;;4.47;;
3597;SDS011;1813;52.016;8.714;2023-07-20T05:40:48;5.80;;;5.20;;
3597;SDS011;1813;52.016;8.714;2023-07-20T05:43:22;5.50;;;5.00;;
3597;SDS011;1813;52.016;8.714;2023-07-20T05:45:56;8.03;;;4.53;;
3597;SDS011;1813;52.016;8.714;2023-07-20T05:48:30;5.53;;;4.87;;
3597;SDS011;1813;52.016;8.714;2023-07-20T05:51:04;4.70;;;4.30;;
3597;SDS011;1813;52.016;8.714;2023-07-20T05:53:37;6.23;;;4.00;;
3597;SDS011;1813;52.016;8.714;2023-07-20T05:56:14;4.73;;;4.30;;
3597;SDS011;1813;52.016;8.714;2023-07-20T05:58:48;4.53;;;4.03;;
3597;SDS011;1813;52.016;8.714;2023-07-20T06:01:22;4.63;;;4.33;;
3597;SDS011;1813;52.016;8.714;2023-07-20T06:03:57;4.33;;;3.90;;
3597;SDS011;1813;52.016;8.714;2023-07-20T06:06:31;3.87;;;3.53;;
3597;SDS011;1813;52.016;8.714;2023-07-20T06:09:05;4.20;;;3.80;;
3597;SDS011;1813;52.016;8.714;2023-07-20T06:11:45;7.63;;;4.00;;
3597;SDS011;1813;52.016;8.714;2023-07-20T06:14:18;4.53;;;4.20;;
3597;SDS011;1813;52.016;8.714;2023-07-20T06:16:52;5.53;;;3.83;;
3597;SDS011;1813;52.016;8.714;2023-07-20T06:19:27;3.93;;;3.63;;
3597;SDS011;1813;52.016;8.714;2023-07-20T06:22:01;4.00;;;3.43;;
3597;SDS011;1813;52.016;8.714;2023-07-20T06:24:36;3.63;;;3.33;;
3597;SDS011;1813;52.016;8.714;2023-07-20T06:27:13;6.13;;;3.70;;
3597;SDS011;1813;52.016;8.714;2023-07-20T06:29:47;3.70;;;3.40;;
3597;SDS011;1813;52.016;8.714;2023-07-20T06:32:21;3.10;;;2.90;;
3597;SDS011;1813;52.016;8.714;2023-07-20T06:34:54;5.90;;;3.50;;
3597;SDS011;1813;52.016;8.714;2023-07-20T06:37:29;2.80;;;2.70;;
3597;SDS011;1813;52.016;8.714;2023-07-20T06:40:03;3.43;;;3.13;;
3597;SDS011;1813;52.016;8.714;2023-07-20T06:42:42;4.10;;;3.00;;
3597;SDS011;1813;52.016;8.714;2023-07-20T06:45:16;3.40;;;2.67;;
3597;SDS011;1813;52.016;8.714;2023-07-20T06:47:50;3.00;;;2.80;;
3597;SDS011;1813;52.016;8.714;2023-07-20T06:50:24;3.13;;;2.93;;
3597;SDS011;1813;52.016;8.714;2023-07-20T06:52:58;2.40;;;2.30;;
3597;SDS011;1813;52.016;8.714;2023-07-20T06:55:33;5.23;;;2.20;;
3597;SDS011;1813;52.016;8.714;2023-07-20T06:58:10;2.93;;;2.23;;
3597;SDS011;1813;52.016;8.714;2023-07-20T07:00:45;2.17;;;2.07;;
3597;SDS011;1813;52.016;8.714;2023-07-20T07:03:18;2.80;;;2.60;;
3597;SDS011;1813;52.016;8.714;2023-07-20T07:05:54;2.83;;;2.60;;
3597;SDS011;1813;52.016;8.714;2023-07-20T07:08:29;2.50;;;2.30;;
3597;SDS011;1813;52.016;8.714;2023-07-20T07:11:05;2.53;;;2.37;;
3597;SDS011;1813;52.016;8.714;2023-07-20T07:13:42;2.43;;;2.33;;
3597;SDS011;1813;52.016;8.714;2023-07-20T07:16:17;2.03;;;1.93;;
3597;SDS011;1813;52.016;8.714;2023-07-20T07:18:52;2.60;;;2.40;;
3597;SDS011;1813;52.016;8.714;2023-07-20T07:21:26;2.23;;;2.13;;
3597;SDS011;1813;52.016;8.714;2023-07-20T07:24:00;2.20;;;2.00;;
3597;SDS011;1813;52.016;8.714;2023-07-20T07:26:36;1.83;;;1.70;;
3597;SDS011;1813;52.016;8.714;2023-07-20T07:29:13;4.30;;;1.80;;
3597;SDS011;1813;52.016;8.714;2023-07-20T07:31:47;2.60;;;1.83;;
3597;SDS011;1813;52.016;8.714;2023-07-20T07:34:21;2.03;;;1.83;;
3597;SDS011;1813;52.016;8.714;2023-07-20T07:36:55;1.70;;;1.60;;
3597;SDS011;1813;52.016;8.714;2023-07-20T07:39:29;4.67;;;4.33;;
3597;SDS011;1813;52.016;8.714;2023-07-20T07:42:03;2.00;;;1.90;;
3597;SDS011;1813;52.016;8.714;2023-07-20T07:44:40;1.50;;;1.23;;
3597;SDS011;1813;52.016;8.714;2023-07-20T07:47:14;1.87;;;1.60;;
3597;SDS011;1813;52.016;8.714;2023-07-20T07:49:48;3.17;;;1.40;;
3597;SDS011;1813;52.016;8.714;2023-07-20T07:52:22;1.20;;;1.13;;
3597;SDS011;1813;52.016;8.714;2023-07-20T07:54:58;4.20;;;1.40;;
3597;SDS011;1813;52.016;8.714;2023-07-20T07:57:33;1.97;;;1.40;;
3597;SDS011;1813;52.016;8.714;2023-07-20T08:00:11;1.30;;;1.20;;
3597;SDS011;1813;52.016;8.714;2023-07-20T08:02:49;1.60;;;1.30;;
3597;SDS011;1813;52.016;8.714;2023-07-20T08:05:24;2.30;;;1.30;;
3597;SDS011;1813;52.016;8.714;2023-07-20T08:07:58;1.60;;;1.43;;
3597;SDS011;1813;52.016;8.714;2023-07-20T08:10:34;1.40;;;1.30;;
3597;SDS011;1813;52.016;8.714;2023-07-20T08:13:08;1.40;;;1.30;;
3597;SDS011;1813;52.016;8.714;2023-07-20T08:15:45;2.67;;;1.17;;
3597;SDS011;1813;52.016;8.714;2023-07-20T08:18:22;1.20;;;1.20;;
3597;SDS011;1813;52.016;8.714;2023-07-20T08:20:57;2.73;;;1.37;;
3597;SDS011;1813;52.016;8.714;2023-07-20T08:23:30;1.47;;;1.37;;
3597;SDS011;1813;52.016;8.714;2023-07-20T08:26:04;2.40;;;1.30;;
3597;SDS011;1813;52.016;8.714;2023-07-20T08:28:38;1.40;;;1.30;;
3597;SDS011;1813;52.016;8.714;2023-07-20T08:31:18;2.50;;;1.10;;
3597;SDS011;1813;52.016;8.714;2023-07-20T08:33:51;1.33;;;1.23;;
3597;SDS011;1813;52.016;8.714;2023-07-20T08:36:27;1.70;;;1.10;;
3597;SDS011;1813;52.016;8.714;2023-07-20T08:39:01;2.20;;;1.13;;
3597;SDS011;1813;52.016;8.714;2023-07-20T08:41:36;1.30;;;1.20;;
3597;SDS011;1813;52.016;8.714;2023-07-20T08:44:10;1.67;;;1.20;;
3597;SDS011;1813;52.016;8.714;2023-07-20T08:46:47;1.77;;;1.00;;
3597;SDS011;1813;52.016;8.714;2023-07-20T08:49:22;1.47;;;1.37;;
3597;SDS011;1813;52.016;8.714;2023-07-20T08:51:55;1.80;;;1.40;;
3597;SDS011;1813;52.016;8.714;2023-07-20T08:54:30;7.90;;;2.00;;
3597;SDS011;1813;52.016;8.714;2023-07-20T08:57:06;1.83;;;1.60;;
3597;SDS011;1813;52.016;8.714;2023-07-20T08:59:42;1.87;;;1.77;;
3597;SDS011;1813;52.016;8.714;2023-07-20T09:02:20;2.50;;;2.30;;
3597;SDS011;1813;52.016;8.714;2023-07-20T09:05:00;2.00;;;1.90;;
3597;SDS011;1813;52.016;8.714;2023-07-20T09:07:35;1.80;;;1.70;;
3597;SDS011;1813;52.016;8.714;2023-07-20T09:10:09;2.90;;;2.20;;
3597;SDS011;1813;52.016;8.714;2023-07-20T09:12:43;2.00;;;1.80;;
3597;SDS011;1813;52.016;8.714;2023-07-20T09:15:18;4.00;;;2.23;;
3597;SDS011;1813;52.016;8.714;2023-07-20T09:17:56;3.27;;;2.40;;
3597;SDS011;1813;52.016;8.714;2023-07-20T09:20:35;4.17;;;2.60;;
3597;SDS011;1813;52.016;8.714;2023-07-20T09:23:09;2.50;;;2.10;;
3597;SDS011;1813;52.016;8.714;2023-07-20T09:25:43;3.30;;;2.30;;
3597;SDS011;1813;52.016;8.714;2023-07-20T09:28:21;1.90;;;1.80;;
3597;SDS011;1813;52.016;8.714;2023-07-20T09:30:55;2.20;;;2.10;;
3597;SDS011;1813;52.016;8.714;2023-07-20T09:33:33;2.20;;;2.00;;
3597;SDS011;1813;52.016;8.714;2023-07-20T09:36:12;1.70;;;1.60;;
3597;SDS011;1813;52.016;8.714;2023-07-20T09:38:46;1.90;;;1.80;;
3597;SDS011;1813;52.016;8.714;2023-07-20T09:41:20;2.00;;;1.90;;
3597;SDS011;1813;52.016;8.714;2023-07-20T09:43:56;2.50;;;1.80;;
3597;SDS011;1813;52.016;8.714;2023-07-20T09:46:40;2.40;;;1.67;;
3597;SDS011;1813;52.016;8.714;2023-07-20T09:49:17;1.70;;;1.60;;
3597;SDS011;1813;52.016;8.714;2023-07-20T09:51:51;1.50;;;1.40;;
3597;SDS011;1813;52.016;8.714;2023-07-20T09:54:27;3.13;;;1.50;;
3597;SDS011;1813;52.016;8.714;2023-07-20T09:57:03;1.50;;;1.30;;
3597;SDS011;1813;52.016;8.714;2023-07-20T09:59:42;1.10;;;1.10;;
3597;SDS011;1813;52.016;8.714;2023-07-20T10:02:19;3.27;;;1.33;;
3597;SDS011;1813;52.016;8.714;2023-07-20T10:04:57;1.43;;;1.10;;
3597;SDS011;1813;52.016;8.714;2023-07-20T10:07:36;1.07;;;1.00;;
3597;SDS011;1813;52.016;8.714;2023-07-20T10:10:18;1.03;;;1.00;;
3597;SDS011;1813;52.016;8.714;2023-07-20T10:12:52;1.30;;;1.20;;
3597;SDS011;1813;52.016;8.714;2023-07-20T10:15:27;2.20;;;1.20;;
3597;SDS011;1813;52.016;8.714;2023-07-20T10:18:04;2.20;;;1.00;;
3597;SDS011;1813;52.016;8.714;2023-07-20T10:20:44;1.10;;;1.10;;
3597;SDS011;1813;52.016;8.714;2023-07-20T10:23:19;0.90;;;0.90;;
3597;SDS011;1813;52.016;8.714;2023-07-20T10:25:54;1.47;;;0.90;;
3597;SDS011;1813;52.016;8.714;2023-07-20T10:28:30;1.07;;;0.80;;
3597;SDS011;1813;52.016;8.714;2023-07-20T10:31:05;0.90;;;0.87;;
3597;SDS011;1813;52.016;8.714;2023-07-20T10:33:40;1.13;;;1.03;;
3597;SDS011;1813;52.016;8.714;2023-07-20T10:36:21;1.13;;;1.03;;
3597;SDS011;1813;52.016;8.714;2023-07-20T10:38:59;2.00;;;1.00;;
3597;SDS011;1813;52.016;8.714;2023-07-20T10:41:33;1.33;;;1.00;;
3597;SDS011;1813;52.016;8.714;2023-07-20T10:44:08;1.37;;;1.00;;
3597;SDS011;1813;52.016;8.714;2023-07-20T10:46:44;1.07;;;0.97;;
3597;SDS011;1813;52.016;8.714;2023-07-20T10:49:18;0.97;;;0.93;;
3597;SDS011;1813;52.016;8.714;2023-07-20T10:51:59;1.10;;;1.00;;
3597;SDS011;1813;52.016;8.714;2023-07-20T10:54:47;1.00;;;0.80;;
3597;SDS011;1813;52.016;8.714;2023-07-20T10:57:28;0.90;;;0.90;;
3597;SDS011;1813;52.016;8.714;2023-07-20T11:00:07;3.37;;;0.87;;
3597;SDS011;1813;52.016;8.714;2023-07-20T11:02:43;1.07;;;1.00;;
3597;SDS011;1813;52.016;8.714;2023-07-20T11:05:32;2.30;;;1.00;;
3597;SDS011;1813;52.016;8.714;2023-07-20T11:08:12;1.03;;;0.87;;
3597;SDS011;1813;52.016;8.714;2023-07-20T11:11:23;0.90;;;0.90;;
3597;SDS011;1813;52.016;8.714;2023-07-20T11:13:59;1.00;;;1.00;;
3597;SDS011;1813;52.016;8.714;2023-07-20T11:16:37;1.47;;;0.80;;
3597;SDS011;1813;52.016;8.714;2023-07-20T11:19:14;1.10;;;1.00;;
3597;SDS011;1813;52.016;8.714;2023-07-20T11:21:50;2.60;;;1.00;;
3597;SDS011;1813;52.016;8.714;2023-07-20T11:24:28;1.83;;;1.30;;
3597;SDS011;1813;52.016;8.714;2023-07-20T11:27:02;1.63;;;1.30;;
3597;SDS011;1813;52.016;8.714;2023-07-20T11:29:37;1.20;;;1.10;;
3597;SDS011;1813;52.016;8.714;2023-07-20T11:32:11;1.10;;;1.00;;
3597;SDS011;1813;52.016;8.714;2023-07-20T11:34:46;1.20;;;1.10;;
3597;SDS011;1813;52.016;8.714;2023-07-20T11:37:21;1.20;;;1.10;;
3597;SDS011;1813;52.016;8.714;2023-07-20T11:39:58;2.50;;;1.30;;
3597;SDS011;1813;52.016;8.714;2023-07-20T11:42:33;1.30;;;1.20;;
3597;SDS011;1813;52.016;8.714;2023-07-20T11:45:07;1.40;;;1.30;;
3597;SDS011;1813;52.016;8.714;2023-07-20T11:47:42;2.00;;;1.53;;
3597;SDS011;1813;52.016;8.714;2023-07-20T11:50:16;1.53;;;1.30;;
3597;SDS011;1813;52.016;8.714;2023-07-20T11:52:49;1.53;;;1.20;;
3597;SDS011;1813;52.016;8.714;2023-07-20T11:55:27;1.30;;;1.30;;
3597;SDS011;1813;52.016;8.714;2023-07-20T11:58:02;1.93;;;1.67;;
3597;SDS011;1813;52.016;8.714;2023-07-20T12:00:38;1.70;;;1.60;;
3597;SDS011;1813;52.016;8.714;2023-07-20T12:03:12;1.77;;;1.70;;
3597;SDS011;1813;52.016;8.714;2023-07-20T12:05:46;1.40;;;1.30;;
3597;SDS011;1813;52.016;8.714;2023-07-20T12:08:21;1.70;;;1.60;;
3597;SDS011;1813;52.016;8.714;2023-07-20T12:10:59;1.70;;;1.60;;
3597;SDS011;1813;52.016;8.714;2023-07-20T12:13:40;1.60;;;1.50;;
3597;SDS011;1813;52.016;8.714;2023-07-20T12:16:16;1.90;;;1.80;;
3597;SDS011;1813;52.016;8.714;2023-07-20T12:18:51;1.80;;;1.70;;
3597;SDS011;1813;52.016;8.714;2023-07-20T12:21:33;2.00;;;1.90;;
3597;SDS011;1813;52.016;8.714;2023-07-20T12:24:08;12.53;;;1.90;;
3597;SDS011;1813;52.016;8.714;2023-07-20T12:26:47;2.00;;;1.90;;
3597;SDS011;1813;52.016;8.714;2023-07-20T12:29:21;2.03;;;1.93;;
3597;SDS011;1813;52.016;8.714;2023-07-20T12:31:55;1.90;;;1.80;;
3597;SDS011;1813;52.016;8.714;2023-07-20T12:34:29;2.10;;;2.00;;
3597;SDS011;1813;52.016;8.714;2023-07-20T12:37:04;2.30;;;2.00;;
3597;SDS011;1813;52.016;8.714;2023-07-20T12:39:38;2.07;;;1.97;;
3597;SDS011;1813;52.016;8.714;2023-07-20T12:42:20;2.10;;;2.00;;
3597;SDS011;1813;52.016;8.714;2023-07-20T12:44:54;2.33;;;2.13;;
3597;SDS011;1813;52.016;8.714;2023-07-20T12:47:28;2.00;;;1.90;;
3597;SDS011;1813;52.016;8.714;2023-07-20T12:50:02;2.00;;;1.90;;
3597;SDS011;1813;52.016;8.714;2023-07-20T12:52:37;2.10;;;2.10;;
3597;SDS011;1813;52.016;8.714;2023-07-20T12:55:13;1.70;;;1.70;;
3597;SDS011;1813;52.016;8.714;2023-07-20T12:57:49;2.60;;;2.00;;
3597;SDS011;1813;52.016;8.714;2023-07-20T13:00:23;2.00;;;1.90;;
3597;SDS011;1813;52.016;8.714;2023-07-20T13:02:57;3.87;;;1.97;;
3597;SDS011;1813;52.016;8.714;2023-07-20T13:05:36;2.00;;;1.90;;
3597;SDS011;1813;52.016;8.714;2023-07-20T13:08:10;1.93;;;1.83;;
3597;SDS011;1813;52.016;8.714;2023-07-20T13:10:44;1.80;;;1.70;;
3597;SDS011;1813;52.016;8.714;2023-07-20T13:13:22;1.67;;;1.67;;
3597;SDS011;1813;52.016;8.714;2023-07-20T13:15:56;1.97;;;1.87;;
3597;SDS011;1813;52.016;8.714;2023-07-20T13:18:30;1.70;;;1.70;;
3597;SDS011;1813;52.016;8.714;2023-07-20T13:21:03;1.90;;;1.80;;
3597;SDS011;1813;52.016;8.714;2023-07-20T13:23:40;2.20;;;1.53;;
3597;SDS011;1813;52.016;8.714;2023-07-20T13:26:14;1.40;;;1.40;;
3597;SDS011;1813;52.016;8.714;2023-07-20T13:28:51;1.63;;;1.53;;
3597;SDS011;1813;52.016;8.714;2023-07-20T13:31:25;1.53;;;1.47;;
3597;SDS011;1813;52.016;8.714;2023-07-20T13:33:59;1.20;;;1.20;;
3597;SDS011;1813;52.016;8.714;2023-07-20T13:36:33;1.50;;;1.40;;
3597;SDS011;1813;52.016;8.714;2023-07-20T13:39:07;2.27;;;1.30;;
3597;SDS011;1813;52.016;8.714;2023-07-20T13:41:42;1.40;;;1.30;;
3597;SDS011;1813;52.016;8.714;2023-07-20T13:44:18;1.50;;;1.40;;
3597;SDS011;1813;52.016;8.714;2023-07-20T13:46:52;1.27;;;1.27;;
3597;SDS011;1813;52.016;8.714;2023-07-20T13:49:26;1.10;;;1.10;;
3597;SDS011;1813;52.016;8.714;2023-07-20T13:52:01;5.53;;;1.50;;
3597;SDS011;1813;52.016;8.714;2023-07-20T13:54:35;3.33;;;1.50;;
3597;SDS011;1813;52.016;8.714;2023-07-20T13:57:09;1.70;;;1.60;;
3597;SDS011;1813;52.016;8.714;2023-07-20T13:59:46;1.30;;;1.30;;
3597;SDS011;1813;52.016;8.714;2023-07-20T14:02:20;3.70;;;1.67;;
3597;SDS011;1813;52.016;8.714;2023-07-20T14:04:54;2.40;;;1.30;;
3597;SDS011;1813;52.016;8.714;2023-07-20T14:07:30;3.83;;;1.10;;
3597;SDS011;1813;52.016;8.714;2023-07-20T14:10:04;1.53;;;1.17;;
3597;SDS011;1813;52.016;8.714;2023-07-20T14:12:38;2.90;;;1.30;;
3597;SDS011;1813;52.016;8.714;2023-07-20T14:15:15;1.73;;;1.20;;
3597;SDS011;1813;52.016;8.714;2023-07-20T14:17:49;1.20;;;1.10;;
3597;SDS011;1813;52.016;8.714;2023-07-20T14:20:23;1.33;;;1.17;;
3597;SDS011;1813;52.016;8.714;2023-07-20T14:22:57;3.00;;;0.97;;
3597;SDS011;1813;52.016;8.714;2023-07-20T14:25:31;0.90;;;0.90;;
3597;SDS011;1813;52.016;8.714;2023-07-20T14:28:05;1.03;;;1.03;;
3597;SDS011;1813;52.016;8.714;2023-07-20T14:30:57;1.20;;;1.10;;
3597;SDS011;1813;52.016;8.714;2023-07-20T14:33:31;1.50;;;1.40;;
3597;SDS011;1813;52.016;8.714;2023-07-20T14:36:05;1.20;;;1.20;;
3597;SDS011;1813;52.016;8.714;2023-07-20T14:38:39;2.80;;;2.57;;
3597;SDS011;1813;52.016;8.714;2023-07-20T14:41:13;2.90;;;1.40;;
3597;SDS011;1813;52.016;8.714;2023-07-20T14:43:47;7.40;;;4.00;;
3597;SDS011;1813;52.016;8.714;2023-07-20T14:46:24;1.60;;;1.60;;
3597;SDS011;1813;52.016;8.714;2023-07-20T14:48:58;2.70;;;1.43;;
3597;SDS011;1813;52.016;8.714;2023-07-20T14:51:33;1.37;;;1.10;;
3597;SDS011;1813;52.016;8.714;2023-07-20T14:54:13;1.83;;;1.10;;
3597;SDS011;1813;52.016;8.714;2023-07-20T14:56:50;1.50;;;1.10;;
3597;SDS011;1813;52.016;8.714;2023-07-20T14:59:26;1.50;;;1.10;;
3597;SDS011;1813;52.016;8.714;2023-07-20T15:02:03;0.90;;;0.90;;
3597;SDS011;1813;52.016;8.714;2023-07-20T15:04:37;1.10;;;1.00;;
3597;SDS011;1813;52.016;8.714;2023-07-20T15:07:11;1.03;;;1.00;;
3597;SDS011;1813;52.016;8.714;2023-07-20T15:09:46;1.00;;;1.00;;
3597;SDS011;1813;52.016;8.714;2023-07-20T15:12:20;1.33;;;1.10;;
3597;SDS011;1813;52.016;8.714;2023-07-20T15:15:01;3.23;;;1.10;;
3597;SDS011;1813;52.016;8.714;2023-07-20T15:17:41;1.60;;;1.30;;
3597;SDS011;1813;52.016;8.714;2023-07-20T15:20:17;2.97;;;1.20;;
3597;SDS011;1813;52.016;8.714;2023-07-20T15:22:51;4.83;;;1.30;;
3597;SDS011;1813;52.016;8.714;2023-07-20T15:25:26;1.33;;;1.20;;
3597;SDS011;1813;52.016;8.714;2023-07-20T15:28:01;1.20;;;1.10;;
3597;SDS011;1813;52.016;8.714;2023-07-20T15:30:35;1.47;;;1.27;;
3597;SDS011;1813;52.016;8.714;2023-07-20T15:33:12;2.10;;;1.20;;
3597;SDS011;1813;52.016;8.714;2023-07-20T15:35:46;1.93;;;1.30;;
3597;SDS011;1813;52.016;8.714;2023-07-20T15:38:20;1.93;;;1.30;;
3597;SDS011;1813;52.016;8.714;2023-07-20T15:40:54;1.80;;;1.20;;
3597;SDS011;1813;52.016;8.714;2023-07-20T15:43:31;2.70;;;1.20;;
3597;SDS011;1813;52.016;8.714;2023-07-20T15:49:19;1.40;;;1.27;;
3597;SDS011;1813;52.016;8.714;2023-07-20T15:51:54;1.20;;;1.10;;
3597;SDS011;1813;52.016;8.714;2023-07-20T15:54:28;1.33;;;1.10;;
3597;SDS011;1813;52.016;8.714;2023-07-20T15:57:03;1.40;;;1.20;;
3597;SDS011;1813;52.016;8.714;2023-07-20T15:59:38;1.10;;;1.00;;
3597;SDS011;1813;52.016;8.714;2023-07-20T16:02:12;1.23;;;1.10;;
3597;SDS011;1813;52.016;8.714;2023-07-20T16:04:49;1.67;;;1.30;;
3597;SDS011;1813;52.016;8.714;2023-07-20T16:07:22;1.03;;;1.00;;